sensor_id;sensor_type;location;lat;lon;timestamp;P1;durP1;ratioP1;P2;durP2;ratioP2
48076;SDS011;33854;57.708;12.008;2022-07-29T00:00:10;5.50;;;1.77;;
48076;SDS011;33854;57.708;12.008;2022-07-29T00:02:36;4.82;;;1.50;;
48076;SDS011;33854;57.708;12.008;2022-07-29T00:05:02;7.37;;;2.50;;
48076;SDS011;33854;57.708;12.008;2022-07-29T00:07:28;4.25;;;1.67;;
48076;SDS011;33854;57.708;12.008;2022-07-29T00:09:54;5.97;;;1.77;;
48076;SDS011;33854;57.708;12.008;2022-07-29T00:12:19;5.43;;;2.00;;
48076;SDS011;33854;57.708;12.008;2022-07-29T00:14:47;6.32;;;1.65;;
48076;SDS011;33854;57.708;12.008;2022-07-29T00:17:12;6.07;;;2.30;;
48076;SDS011;33854;57.708;12.008;2022-07-29T00:19:38;5.67;;;2.07;;
48076;SDS011;33854;57.708;12.008;2022-07-29T00:22:03;4.03;;;1.83;;
48076;SDS011;33854;57.708;12.008;2022-07-29T00:24:28;5.63;;;2.30;;
48076;SDS011;33854;57.708;12.008;2022-07-29T00:26:54;5.93;;;2.10;;
48076;SDS011;33854;57.708;12.008;2022-07-29T00:29:19;4.67;;;1.93;;
48076;SDS011;33854;57.708;12.008;2022-07-29T00:31:45;5.93;;;1.90;;
48076;SDS011;33854;57.708;12.008;2022-07-29T00:34:10;5.87;;;1.83;;
48076;SDS011;33854;57.708;12.008;2022-07-29T00:36:54;4.45;;;2.00;;
48076;SDS011;33854;57.708;12.008;2022-07-29T00:39:19;8.80;;;2.40;;
48076;SDS011;33854;57.708;12.008;2022-07-29T00:41:45;3.50;;;1.57;;
48076;SDS011;33854;57.708;12.008;2022-07-29T00:44:10;6.37;;;1.80;;
48076;SDS011;33854;57.708;12.008;2022-07-29T00:46:35;9.60;;;2.73;;
48076;SDS011;33854;57.708;12.008;2022-07-29T00:49:01;5.17;;;1.93;;
48076;SDS011;33854;57.708;12.008;2022-07-29T00:51:27;9.73;;;2.00;;
48076;SDS011;33854;57.708;12.008;2022-07-29T00:53:52;8.27;;;2.03;;
48076;SDS011;33854;57.708;12.008;2022-07-29T00:56:18;6.30;;;1.70;;
48076;SDS011;33854;57.708;12.008;2022-07-29T00:58:44;7.83;;;2.00;;
48076;SDS011;33854;57.708;12.008;2022-07-29T01:01:11;6.90;;;1.70;;
48076;SDS011;33854;57.708;12.008;2022-07-29T01:03:37;5.60;;;1.63;;
48076;SDS011;33854;57.708;12.008;2022-07-29T01:06:02;4.20;;;1.90;;
48076;SDS011;33854;57.708;12.008;2022-07-29T01:08:29;5.93;;;2.08;;
48076;SDS011;33854;57.708;12.008;2022-07-29T01:10:56;3.83;;;1.70;;
48076;SDS011;33854;57.708;12.008;2022-07-29T01:13:22;4.13;;;1.90;;
48076;SDS011;33854;57.708;12.008;2022-07-29T01:15:49;5.57;;;1.63;;
48076;SDS011;33854;57.708;12.008;2022-07-29T01:18:22;5.88;;;1.88;;
48076;SDS011;33854;57.708;12.008;2022-07-29T01:26:47;5.40;;;2.08;;
48076;SDS011;33854;57.708;12.008;2022-07-29T01:31:56;3.88;;;2.17;;
48076;SDS011;33854;57.708;12.008;2022-07-29T01:34:23;4.80;;;2.25;;
48076;SDS011;33854;57.708;12.008;2022-07-29T01:37:26;2.80;;;2.10;;
48076;SDS011;33854;57.708;12.008;2022-07-29T01:39:44;8.73;;;2.72;;
48076;SDS011;33854;57.708;12.008;2022-07-29T01:44:57;5.88;;;1.98;;
48076;SDS011;33854;57.708;12.008;2022-07-29T01:47:31;5.63;;;2.10;;
48076;SDS011;33854;57.708;12.008;2022-07-29T01:50:03;5.72;;;1.80;;
48076;SDS011;33854;57.708;12.008;2022-07-29T01:52:37;3.97;;;1.98;;
48076;SDS011;33854;57.708;12.008;2022-07-29T01:55:09;6.95;;;1.98;;
48076;SDS011;33854;57.708;12.008;2022-07-29T01:57:38;5.38;;;1.92;;
48076;SDS011;33854;57.708;12.008;2022-07-29T02:00:07;4.97;;;2.13;;
48076;SDS011;33854;57.708;12.008;2022-07-29T02:02:33;6.10;;;2.53;;
48076;SDS011;33854;57.708;12.008;2022-07-29T02:05:02;6.43;;;2.25;;
48076;SDS011;33854;57.708;12.008;2022-07-29T02:07:29;8.70;;;2.47;;
48076;SDS011;33854;57.708;12.008;2022-07-29T02:09:57;6.03;;;1.98;;
48076;SDS011;33854;57.708;12.008;2022-07-29T02:12:24;4.60;;;1.75;;
48076;SDS011;33854;57.708;12.008;2022-07-29T02:17:24;10.43;;;2.10;;
48076;SDS011;33854;57.708;12.008;2022-07-29T02:19:53;4.97;;;2.00;;
48076;SDS011;33854;57.708;12.008;2022-07-29T02:22:22;4.75;;;2.10;;
48076;SDS011;33854;57.708;12.008;2022-07-29T02:24:50;4.43;;;1.70;;
48076;SDS011;33854;57.708;12.008;2022-07-29T02:27:16;4.93;;;1.85;;
48076;SDS011;33854;57.708;12.008;2022-07-29T02:29:45;5.97;;;1.98;;
48076;SDS011;33854;57.708;12.008;2022-07-29T02:32:12;5.00;;;1.70;;
48076;SDS011;33854;57.708;12.008;2022-07-29T02:34:39;3.33;;;1.67;;
48076;SDS011;33854;57.708;12.008;2022-07-29T02:39:34;3.20;;;1.63;;
48076;SDS011;33854;57.708;12.008;2022-07-29T02:42:03;7.80;;;2.37;;
48076;SDS011;33854;57.708;12.008;2022-07-29T02:44:32;3.10;;;1.65;;
48076;SDS011;33854;57.708;12.008;2022-07-29T02:47:04;5.35;;;2.25;;
48076;SDS011;33854;57.708;12.008;2022-07-29T02:49:42;3.35;;;2.00;;
48076;SDS011;33854;57.708;12.008;2022-07-29T02:52:18;7.55;;;2.60;;
48076;SDS011;33854;57.708;12.008;2022-07-29T02:58:01;5.03;;;2.15;;
48076;SDS011;33854;57.708;12.008;2022-07-29T03:00:31;5.70;;;1.98;;
48076;SDS011;33854;57.708;12.008;2022-07-29T03:03:01;5.43;;;2.17;;
48076;SDS011;33854;57.708;12.008;2022-07-29T03:05:32;3.67;;;1.83;;
48076;SDS011;33854;57.708;12.008;2022-07-29T03:07:59;7.17;;;2.20;;
48076;SDS011;33854;57.708;12.008;2022-07-29T03:10:29;5.82;;;2.35;;
48076;SDS011;33854;57.708;12.008;2022-07-29T03:12:56;5.28;;;2.30;;
48076;SDS011;33854;57.708;12.008;2022-07-29T03:17:48;4.85;;;2.25;;
48076;SDS011;33854;57.708;12.008;2022-07-29T03:20:14;7.10;;;2.10;;
48076;SDS011;33854;57.708;12.008;2022-07-29T03:22:41;7.20;;;2.50;;
48076;SDS011;33854;57.708;12.008;2022-07-29T03:25:12;9.32;;;3.45;;
48076;SDS011;33854;57.708;12.008;2022-07-29T03:27:38;4.00;;;2.30;;
48076;SDS011;33854;57.708;12.008;2022-07-29T03:30:05;3.25;;;2.08;;
48076;SDS011;33854;57.708;12.008;2022-07-29T03:32:32;6.15;;;2.17;;
48076;SDS011;33854;57.708;12.008;2022-07-29T03:34:57;5.73;;;2.17;;
48076;SDS011;33854;57.708;12.008;2022-07-29T03:37:23;3.77;;;1.70;;
48076;SDS011;33854;57.708;12.008;2022-07-29T03:39:48;6.63;;;2.30;;
48076;SDS011;33854;57.708;12.008;2022-07-29T03:42:15;5.65;;;2.00;;
48076;SDS011;33854;57.708;12.008;2022-07-29T03:44:45;4.85;;;2.33;;
48076;SDS011;33854;57.708;12.008;2022-07-29T03:47:13;3.88;;;2.00;;
48076;SDS011;33854;57.708;12.008;2022-07-29T03:49:40;6.55;;;3.00;;
48076;SDS011;33854;57.708;12.008;2022-07-29T03:52:09;5.03;;;2.35;;
48076;SDS011;33854;57.708;12.008;2022-07-29T03:54:34;5.50;;;2.30;;
48076;SDS011;33854;57.708;12.008;2022-07-29T03:57:01;3.97;;;2.20;;
48076;SDS011;33854;57.708;12.008;2022-07-29T03:59:27;4.03;;;1.83;;
48076;SDS011;33854;57.708;12.008;2022-07-29T04:01:55;7.40;;;2.80;;
48076;SDS011;33854;57.708;12.008;2022-07-29T04:04:22;5.97;;;2.22;;
48076;SDS011;33854;57.708;12.008;2022-07-29T04:06:47;8.90;;;2.17;;
48076;SDS011;33854;57.708;12.008;2022-07-29T04:09:12;6.70;;;2.20;;
48076;SDS011;33854;57.708;12.008;2022-07-29T04:11:38;7.80;;;2.20;;
48076;SDS011;33854;57.708;12.008;2022-07-29T04:14:05;3.10;;;1.80;;
48076;SDS011;33854;57.708;12.008;2022-07-29T04:16:30;4.33;;;2.00;;
48076;SDS011;33854;57.708;12.008;2022-07-29T04:18:56;6.18;;;2.33;;
48076;SDS011;33854;57.708;12.008;2022-07-29T04:21:21;8.70;;;2.40;;
48076;SDS011;33854;57.708;12.008;2022-07-29T04:23:47;8.93;;;3.00;;
48076;SDS011;33854;57.708;12.008;2022-07-29T04:26:15;7.50;;;2.20;;
48076;SDS011;33854;57.708;12.008;2022-07-29T04:31:07;7.22;;;2.65;;
48076;SDS011;33854;57.708;12.008;2022-07-29T04:33:33;5.65;;;2.25;;
48076;SDS011;33854;57.708;12.008;2022-07-29T04:35:59;4.07;;;2.17;;
48076;SDS011;33854;57.708;12.008;2022-07-29T04:38:24;6.37;;;2.40;;
48076;SDS011;33854;57.708;12.008;2022-07-29T04:40:49;6.30;;;2.80;;
48076;SDS011;33854;57.708;12.008;2022-07-29T04:43:15;6.93;;;2.40;;
48076;SDS011;33854;57.708;12.008;2022-07-29T04:45:41;5.63;;;2.40;;
48076;SDS011;33854;57.708;12.008;2022-07-29T04:48:06;4.63;;;2.60;;
48076;SDS011;33854;57.708;12.008;2022-07-29T04:50:32;7.40;;;2.20;;
48076;SDS011;33854;57.708;12.008;2022-07-29T04:52:57;4.73;;;2.37;;
48076;SDS011;33854;57.708;12.008;2022-07-29T04:55:23;9.37;;;2.47;;
48076;SDS011;33854;57.708;12.008;2022-07-29T04:57:48;4.60;;;2.40;;
48076;SDS011;33854;57.708;12.008;2022-07-29T05:00:14;4.07;;;1.97;;
48076;SDS011;33854;57.708;12.008;2022-07-29T05:02:39;5.20;;;1.90;;
48076;SDS011;33854;57.708;12.008;2022-07-29T05:05:05;7.03;;;2.30;;
48076;SDS011;33854;57.708;12.008;2022-07-29T05:07:30;3.42;;;2.60;;
48076;SDS011;33854;57.708;12.008;2022-07-29T05:09:56;5.60;;;1.93;;
48076;SDS011;33854;57.708;12.008;2022-07-29T05:12:22;6.27;;;2.87;;
48076;SDS011;33854;57.708;12.008;2022-07-29T05:17:13;5.20;;;2.60;;
48076;SDS011;33854;57.708;12.008;2022-07-29T05:19:39;4.20;;;2.07;;
48076;SDS011;33854;57.708;12.008;2022-07-29T05:22:04;4.37;;;2.10;;
48076;SDS011;33854;57.708;12.008;2022-07-29T05:24:30;5.00;;;2.00;;
48076;SDS011;33854;57.708;12.008;2022-07-29T05:26:55;8.03;;;2.63;;
48076;SDS011;33854;57.708;12.008;2022-07-29T05:29:21;6.70;;;2.30;;
48076;SDS011;33854;57.708;12.008;2022-07-29T05:31:46;6.67;;;2.57;;
48076;SDS011;33854;57.708;12.008;2022-07-29T05:34:11;3.23;;;2.20;;
48076;SDS011;33854;57.708;12.008;2022-07-29T05:36:37;4.57;;;2.10;;
48076;SDS011;33854;57.708;12.008;2022-07-29T05:39:02;7.53;;;1.90;;
48076;SDS011;33854;57.708;12.008;2022-07-29T05:41:31;6.50;;;2.37;;
48076;SDS011;33854;57.708;12.008;2022-07-29T05:43:57;5.80;;;2.53;;
48076;SDS011;33854;57.708;12.008;2022-07-29T05:46:23;4.50;;;2.30;;
48076;SDS011;33854;57.708;12.008;2022-07-29T05:48:48;5.27;;;1.80;;
48076;SDS011;33854;57.708;12.008;2022-07-29T05:51:14;5.47;;;2.20;;
48076;SDS011;33854;57.708;12.008;2022-07-29T05:53:39;5.23;;;1.80;;
48076;SDS011;33854;57.708;12.008;2022-07-29T05:56:05;4.63;;;1.93;;
48076;SDS011;33854;57.708;12.008;2022-07-29T05:58:30;5.67;;;1.77;;
48076;SDS011;33854;57.708;12.008;2022-07-29T06:00:56;4.47;;;1.70;;
48076;SDS011;33854;57.708;12.008;2022-07-29T06:03:24;6.63;;;2.20;;
48076;SDS011;33854;57.708;12.008;2022-07-29T06:05:50;13.38;;;3.88;;
48076;SDS011;33854;57.708;12.008;2022-07-29T06:08:15;9.20;;;3.10;;
48076;SDS011;33854;57.708;12.008;2022-07-29T06:10:42;7.05;;;2.00;;
48076;SDS011;33854;57.708;12.008;2022-07-29T06:13:08;5.90;;;1.60;;
48076;SDS011;33854;57.708;12.008;2022-07-29T06:15:33;3.53;;;1.70;;
48076;SDS011;33854;57.708;12.008;2022-07-29T06:17:59;6.27;;;2.37;;
48076;SDS011;33854;57.708;12.008;2022-07-29T06:20:24;10.17;;;1.77;;
48076;SDS011;33854;57.708;12.008;2022-07-29T06:22:49;6.30;;;1.70;;
48076;SDS011;33854;57.708;12.008;2022-07-29T06:25:15;5.50;;;1.40;;
48076;SDS011;33854;57.708;12.008;2022-07-29T06:27:41;8.98;;;1.83;;
48076;SDS011;33854;57.708;12.008;2022-07-29T06:30:06;3.90;;;1.60;;
48076;SDS011;33854;57.708;12.008;2022-07-29T06:32:32;3.35;;;1.17;;
48076;SDS011;33854;57.708;12.008;2022-07-29T06:34:58;7.40;;;1.27;;
48076;SDS011;33854;57.708;12.008;2022-07-29T06:37:24;3.47;;;1.23;;
48076;SDS011;33854;57.708;12.008;2022-07-29T06:39:49;7.17;;;1.43;;
48076;SDS011;33854;57.708;12.008;2022-07-29T06:42:35;5.75;;;1.48;;
48076;SDS011;33854;57.708;12.008;2022-07-29T06:45:00;8.10;;;2.27;;
48076;SDS011;33854;57.708;12.008;2022-07-29T06:47:26;5.33;;;1.20;;
48076;SDS011;33854;57.708;12.008;2022-07-29T06:49:51;5.17;;;1.57;;
48076;SDS011;33854;57.708;12.008;2022-07-29T06:52:16;5.30;;;1.17;;
48076;SDS011;33854;57.708;12.008;2022-07-29T06:54:42;7.83;;;1.87;;
48076;SDS011;33854;57.708;12.008;2022-07-29T06:57:12;3.55;;;1.33;;
48076;SDS011;33854;57.708;12.008;2022-07-29T06:59:38;8.70;;;1.80;;
48076;SDS011;33854;57.708;12.008;2022-07-29T07:02:03;4.33;;;1.40;;
48076;SDS011;33854;57.708;12.008;2022-07-29T07:04:29;6.20;;;1.93;;
48076;SDS011;33854;57.708;12.008;2022-07-29T07:06:54;5.27;;;1.10;;
48076;SDS011;33854;57.708;12.008;2022-07-29T07:09:20;3.80;;;1.23;;
48076;SDS011;33854;57.708;12.008;2022-07-29T07:11:46;5.83;;;1.50;;
48076;SDS011;33854;57.708;12.008;2022-07-29T07:14:11;7.40;;;1.30;;
48076;SDS011;33854;57.708;12.008;2022-07-29T07:16:37;4.87;;;1.37;;
48076;SDS011;33854;57.708;12.008;2022-07-29T07:19:02;4.60;;;1.17;;
48076;SDS011;33854;57.708;12.008;2022-07-29T07:21:28;6.00;;;1.30;;
48076;SDS011;33854;57.708;12.008;2022-07-29T07:23:53;4.18;;;1.00;;
48076;SDS011;33854;57.708;12.008;2022-07-29T07:26:19;3.53;;;1.37;;
48076;SDS011;33854;57.708;12.008;2022-07-29T07:28:44;2.77;;;1.00;;
48076;SDS011;33854;57.708;12.008;2022-07-29T07:31:10;3.33;;;1.00;;
48076;SDS011;33854;57.708;12.008;2022-07-29T07:33:36;4.80;;;0.98;;
48076;SDS011;33854;57.708;12.008;2022-07-29T07:36:01;2.93;;;1.03;;
48076;SDS011;33854;57.708;12.008;2022-07-29T07:38:27;4.93;;;1.35;;
48076;SDS011;33854;57.708;12.008;2022-07-29T07:40:53;3.60;;;1.00;;
48076;SDS011;33854;57.708;12.008;2022-07-29T07:43:18;5.50;;;1.23;;
48076;SDS011;33854;57.708;12.008;2022-07-29T07:45:44;3.00;;;1.00;;
48076;SDS011;33854;57.708;12.008;2022-07-29T07:48:09;7.20;;;1.50;;
48076;SDS011;33854;57.708;12.008;2022-07-29T07:50:35;4.95;;;1.08;;
48076;SDS011;33854;57.708;12.008;2022-07-29T07:53:01;4.05;;;0.98;;
48076;SDS011;33854;57.708;12.008;2022-07-29T07:55:27;5.15;;;1.10;;
48076;SDS011;33854;57.708;12.008;2022-07-29T07:57:53;3.13;;;1.00;;
48076;SDS011;33854;57.708;12.008;2022-07-29T08:00:20;3.88;;;1.30;;
48076;SDS011;33854;57.708;12.008;2022-07-29T08:02:45;4.55;;;1.52;;
48076;SDS011;33854;57.708;12.008;2022-07-29T08:05:11;6.07;;;1.00;;
48076;SDS011;33854;57.708;12.008;2022-07-29T08:07:41;5.30;;;1.42;;
48076;SDS011;33854;57.708;12.008;2022-07-29T08:10:08;4.20;;;1.30;;
48076;SDS011;33854;57.708;12.008;2022-07-29T08:12:33;4.27;;;1.23;;
48076;SDS011;33854;57.708;12.008;2022-07-29T08:14:59;6.63;;;1.10;;
48076;SDS011;33854;57.708;12.008;2022-07-29T08:17:24;8.97;;;1.70;;
48076;SDS011;33854;57.708;12.008;2022-07-29T08:19:50;5.82;;;1.77;;
48076;SDS011;33854;57.708;12.008;2022-07-29T08:22:16;7.43;;;1.00;;
48076;SDS011;33854;57.708;12.008;2022-07-29T08:24:41;4.03;;;1.07;;
48076;SDS011;33854;57.708;12.008;2022-07-29T08:27:17;7.03;;;1.58;;
48076;SDS011;33854;57.708;12.008;2022-07-29T08:29:43;4.60;;;1.27;;
48076;SDS011;33854;57.708;12.008;2022-07-29T08:32:08;4.53;;;1.37;;
48076;SDS011;33854;57.708;12.008;2022-07-29T08:34:34;5.33;;;1.20;;
48076;SDS011;33854;57.708;12.008;2022-07-29T08:36:59;5.87;;;1.07;;
48076;SDS011;33854;57.708;12.008;2022-07-29T08:39:25;4.90;;;1.57;;
48076;SDS011;33854;57.708;12.008;2022-07-29T08:41:50;5.37;;;1.57;;
48076;SDS011;33854;57.708;12.008;2022-07-29T08:44:17;9.68;;;1.75;;
48076;SDS011;33854;57.708;12.008;2022-07-29T08:46:43;7.28;;;1.73;;
48076;SDS011;33854;57.708;12.008;2022-07-29T08:49:09;7.60;;;1.55;;
48076;SDS011;33854;57.708;12.008;2022-07-29T08:51:34;3.57;;;1.37;;
48076;SDS011;33854;57.708;12.008;2022-07-29T08:54:02;6.47;;;1.52;;
48076;SDS011;33854;57.708;12.008;2022-07-29T08:56:28;3.05;;;1.10;;
48076;SDS011;33854;57.708;12.008;2022-07-29T08:58:54;6.45;;;1.13;;
48076;SDS011;33854;57.708;12.008;2022-07-29T09:01:22;5.20;;;1.33;;
48076;SDS011;33854;57.708;12.008;2022-07-29T09:03:49;4.65;;;1.30;;
48076;SDS011;33854;57.708;12.008;2022-07-29T09:06:19;4.13;;;1.23;;
48076;SDS011;33854;57.708;12.008;2022-07-29T09:08:47;2.75;;;1.15;;
48076;SDS011;33854;57.708;12.008;2022-07-29T09:11:13;3.97;;;1.05;;
48076;SDS011;33854;57.708;12.008;2022-07-29T09:13:39;3.05;;;1.27;;
48076;SDS011;33854;57.708;12.008;2022-07-29T09:16:05;10.03;;;1.23;;
48076;SDS011;33854;57.708;12.008;2022-07-29T09:18:34;2.58;;;1.27;;
48076;SDS011;33854;57.708;12.008;2022-07-29T09:21:08;7.22;;;1.67;;
48076;SDS011;33854;57.708;12.008;2022-07-29T09:26:29;4.93;;;1.40;;
48076;SDS011;33854;57.708;12.008;2022-07-29T09:28:58;8.10;;;1.77;;
48076;SDS011;33854;57.708;12.008;2022-07-29T09:31:34;2.70;;;1.27;;
48076;SDS011;33854;57.708;12.008;2022-07-29T09:34:01;4.47;;;1.27;;
48076;SDS011;33854;57.708;12.008;2022-07-29T09:41:22;4.03;;;1.38;;
48076;SDS011;33854;57.708;12.008;2022-07-29T09:43:54;4.90;;;1.37;;
48076;SDS011;33854;57.708;12.008;2022-07-29T09:46:23;4.88;;;1.65;;
48076;SDS011;33854;57.708;12.008;2022-07-29T09:51:39;5.30;;;1.52;;
48076;SDS011;33854;57.708;12.008;2022-07-29T09:54:24;4.22;;;1.25;;
48076;SDS011;33854;57.708;12.008;2022-07-29T09:56:51;6.10;;;1.25;;
48076;SDS011;33854;57.708;12.008;2022-07-29T10:01:44;3.20;;;1.17;;
48076;SDS011;33854;57.708;12.008;2022-07-29T10:04:09;5.27;;;1.50;;
48076;SDS011;33854;57.708;12.008;2022-07-29T10:06:35;3.37;;;1.00;;
48076;SDS011;33854;57.708;12.008;2022-07-29T10:09:20;4.00;;;1.65;;
48076;SDS011;33854;57.708;12.008;2022-07-29T10:12:01;5.43;;;1.20;;
48076;SDS011;33854;57.708;12.008;2022-07-29T10:14:31;2.05;;;1.35;;
48076;SDS011;33854;57.708;12.008;2022-07-29T10:17:02;5.88;;;1.33;;
48076;SDS011;33854;57.708;12.008;2022-07-29T10:19:29;4.00;;;0.90;;
48076;SDS011;33854;57.708;12.008;2022-07-29T10:21:56;5.70;;;1.42;;
48076;SDS011;33854;57.708;12.008;2022-07-29T10:24:24;4.63;;;1.17;;
48076;SDS011;33854;57.708;12.008;2022-07-29T10:26:51;4.82;;;1.35;;
48076;SDS011;33854;57.708;12.008;2022-07-29T10:29:19;2.78;;;0.85;;
48076;SDS011;33854;57.708;12.008;2022-07-29T10:37:29;6.68;;;1.40;;
48076;SDS011;33854;57.708;12.008;2022-07-29T10:40:22;5.20;;;1.90;;
48076;SDS011;33854;57.708;12.008;2022-07-29T10:43:21;4.93;;;1.60;;
48076;SDS011;33854;57.708;12.008;2022-07-29T10:45:54;3.00;;;1.70;;
48076;SDS011;33854;57.708;12.008;2022-07-29T10:48:22;2.30;;;0.88;;
48076;SDS011;33854;57.708;12.008;2022-07-29T10:56:24;4.72;;;0.90;;
48076;SDS011;33854;57.708;12.008;2022-07-29T11:01:45;3.28;;;0.88;;
48076;SDS011;33854;57.708;12.008;2022-07-29T11:04:12;1.55;;;1.02;;
48076;SDS011;33854;57.708;12.008;2022-07-29T11:09:31;2.25;;;0.90;;
48076;SDS011;33854;57.708;12.008;2022-07-29T11:11:57;3.57;;;1.47;;
48076;SDS011;33854;57.708;12.008;2022-07-29T11:17:22;2.78;;;1.30;;
48076;SDS011;33854;57.708;12.008;2022-07-29T11:19:48;2.67;;;0.80;;
48076;SDS011;33854;57.708;12.008;2022-07-29T11:22:30;4.63;;;0.77;;
48076;SDS011;33854;57.708;12.008;2022-07-29T11:25:13;1.23;;;0.60;;
48076;SDS011;33854;57.708;12.008;2022-07-29T11:27:46;1.02;;;0.50;;
48076;SDS011;33854;57.708;12.008;2022-07-29T11:30:12;1.60;;;0.60;;
48076;SDS011;33854;57.708;12.008;2022-07-29T11:32:41;1.63;;;0.77;;
48076;SDS011;33854;57.708;12.008;2022-07-29T11:37:44;2.20;;;0.90;;
48076;SDS011;33854;57.708;12.008;2022-07-29T11:40:12;3.60;;;0.68;;
48076;SDS011;33854;57.708;12.008;2022-07-29T11:42:39;0.95;;;0.50;;
48076;SDS011;33854;57.708;12.008;2022-07-29T11:47:36;1.15;;;0.60;;
48076;SDS011;33854;57.708;12.008;2022-07-29T11:50:07;2.78;;;0.73;;
48076;SDS011;33854;57.708;12.008;2022-07-29T11:52:41;2.15;;;0.60;;
48076;SDS011;33854;57.708;12.008;2022-07-29T12:00:20;2.58;;;0.70;;
48076;SDS011;33854;57.708;12.008;2022-07-29T12:02:51;4.00;;;0.68;;
48076;SDS011;33854;57.708;12.008;2022-07-29T12:05:18;2.50;;;0.57;;
48076;SDS011;33854;57.708;12.008;2022-07-29T12:07:46;1.88;;;0.80;;
48076;SDS011;33854;57.708;12.008;2022-07-29T12:10:12;1.58;;;0.70;;
48076;SDS011;33854;57.708;12.008;2022-07-29T12:12:38;3.25;;;1.05;;
48076;SDS011;33854;57.708;12.008;2022-07-29T12:15:25;3.00;;;0.80;;
48076;SDS011;33854;57.708;12.008;2022-07-29T12:17:51;3.03;;;0.80;;
48076;SDS011;33854;57.708;12.008;2022-07-29T12:20:24;4.75;;;0.85;;
48076;SDS011;33854;57.708;12.008;2022-07-29T12:22:51;2.45;;;1.27;;
48076;SDS011;33854;57.708;12.008;2022-07-29T12:25:18;0.95;;;0.60;;
48076;SDS011;33854;57.708;12.008;2022-07-29T12:27:44;2.40;;;0.90;;
48076;SDS011;33854;57.708;12.008;2022-07-29T12:30:11;2.58;;;0.82;;
48076;SDS011;33854;57.708;12.008;2022-07-29T12:32:39;1.35;;;0.70;;
48076;SDS011;33854;57.708;12.008;2022-07-29T12:35:11;1.67;;;0.90;;
48076;SDS011;33854;57.708;12.008;2022-07-29T12:37:38;1.42;;;0.85;;
48076;SDS011;33854;57.708;12.008;2022-07-29T12:40:06;2.55;;;0.80;;
48076;SDS011;33854;57.708;12.008;2022-07-29T12:42:33;3.78;;;0.75;;
48076;SDS011;33854;57.708;12.008;2022-07-29T12:44:59;3.08;;;0.75;;
48076;SDS011;33854;57.708;12.008;2022-07-29T12:47:26;3.00;;;0.93;;
48076;SDS011;33854;57.708;12.008;2022-07-29T12:50:07;1.83;;;0.90;;
48076;SDS011;33854;57.708;12.008;2022-07-29T12:55:02;3.58;;;0.98;;
48076;SDS011;33854;57.708;12.008;2022-07-29T12:57:28;3.33;;;0.93;;
48076;SDS011;33854;57.708;12.008;2022-07-29T13:00:05;1.02;;;0.60;;
48076;SDS011;33854;57.708;12.008;2022-07-29T13:02:36;2.55;;;0.60;;
48076;SDS011;33854;57.708;12.008;2022-07-29T13:05:02;1.42;;;0.93;;
48076;SDS011;33854;57.708;12.008;2022-07-29T13:07:29;1.55;;;0.90;;
48076;SDS011;33854;57.708;12.008;2022-07-29T13:12:38;4.07;;;0.77;;
48076;SDS011;33854;57.708;12.008;2022-07-29T13:20:08;1.92;;;0.90;;
48076;SDS011;33854;57.708;12.008;2022-07-29T13:22:37;3.50;;;1.15;;
48076;SDS011;33854;57.708;12.008;2022-07-29T13:25:03;4.07;;;0.95;;
48076;SDS011;33854;57.708;12.008;2022-07-29T13:27:32;1.92;;;0.60;;
48076;SDS011;33854;57.708;12.008;2022-07-29T13:30:00;3.97;;;1.10;;
48076;SDS011;33854;57.708;12.008;2022-07-29T13:32:27;2.63;;;0.80;;
48076;SDS011;33854;57.708;12.008;2022-07-29T13:34:53;2.85;;;0.98;;
48076;SDS011;33854;57.708;12.008;2022-07-29T13:37:20;1.85;;;0.52;;
48076;SDS011;33854;57.708;12.008;2022-07-29T13:42:12;2.45;;;0.80;;
48076;SDS011;33854;57.708;12.008;2022-07-29T13:44:38;2.42;;;1.10;;
48076;SDS011;33854;57.708;12.008;2022-07-29T13:49:30;3.03;;;0.98;;
48076;SDS011;33854;57.708;12.008;2022-07-29T13:51:55;2.80;;;0.80;;
48076;SDS011;33854;57.708;12.008;2022-07-29T13:54:21;2.37;;;0.93;;
48076;SDS011;33854;57.708;12.008;2022-07-29T13:56:46;2.93;;;1.00;;
48076;SDS011;33854;57.708;12.008;2022-07-29T13:59:11;2.70;;;1.00;;
48076;SDS011;33854;57.708;12.008;2022-07-29T14:01:37;2.67;;;1.00;;
48076;SDS011;33854;57.708;12.008;2022-07-29T14:04:06;2.90;;;1.20;;
48076;SDS011;33854;57.708;12.008;2022-07-29T14:06:31;1.27;;;0.80;;
48076;SDS011;33854;57.708;12.008;2022-07-29T14:11:22;3.87;;;0.80;;
48076;SDS011;33854;57.708;12.008;2022-07-29T14:16:13;1.83;;;0.73;;
48076;SDS011;33854;57.708;12.008;2022-07-29T14:21:03;1.75;;;0.90;;
48076;SDS011;33854;57.708;12.008;2022-07-29T14:23:29;2.30;;;0.63;;
48076;SDS011;33854;57.708;12.008;2022-07-29T14:25:54;3.28;;;0.68;;
48076;SDS011;33854;57.708;12.008;2022-07-29T14:30:45;2.58;;;0.88;;
48076;SDS011;33854;57.708;12.008;2022-07-29T14:33:11;2.50;;;0.77;;
48076;SDS011;33854;57.708;12.008;2022-07-29T14:35:36;3.45;;;0.80;;
48076;SDS011;33854;57.708;12.008;2022-07-29T14:38:02;3.92;;;0.80;;
48076;SDS011;33854;57.708;12.008;2022-07-29T14:40:27;1.67;;;0.88;;
48076;SDS011;33854;57.708;12.008;2022-07-29T14:42:53;1.67;;;0.90;;
48076;SDS011;33854;57.708;12.008;2022-07-29T14:45:18;1.98;;;0.77;;
48076;SDS011;33854;57.708;12.008;2022-07-29T14:47:43;4.63;;;0.88;;
48076;SDS011;33854;57.708;12.008;2022-07-29T14:50:09;3.20;;;0.80;;
48076;SDS011;33854;57.708;12.008;2022-07-29T14:52:35;2.53;;;0.80;;
48076;SDS011;33854;57.708;12.008;2022-07-29T14:55:01;0.77;;;0.60;;
48076;SDS011;33854;57.708;12.008;2022-07-29T14:57:27;2.05;;;0.70;;
48076;SDS011;33854;57.708;12.008;2022-07-29T14:59:53;0.90;;;0.63;;
48076;SDS011;33854;57.708;12.008;2022-07-29T15:02:19;2.85;;;1.10;;
48076;SDS011;33854;57.708;12.008;2022-07-29T15:04:44;4.82;;;0.77;;
48076;SDS011;33854;57.708;12.008;2022-07-29T15:07:11;2.60;;;1.05;;
48076;SDS011;33854;57.708;12.008;2022-07-29T15:09:36;1.38;;;0.50;;
48076;SDS011;33854;57.708;12.008;2022-07-29T15:12:02;2.05;;;0.80;;
48076;SDS011;33854;57.708;12.008;2022-07-29T15:14:28;4.35;;;0.90;;
48076;SDS011;33854;57.708;12.008;2022-07-29T15:16:53;2.63;;;0.70;;
48076;SDS011;33854;57.708;12.008;2022-07-29T15:19:19;1.55;;;0.70;;
48076;SDS011;33854;57.708;12.008;2022-07-29T15:21:44;1.40;;;0.63;;
48076;SDS011;33854;57.708;12.008;2022-07-29T15:24:10;2.65;;;1.25;;
48076;SDS011;33854;57.708;12.008;2022-07-29T15:26:35;2.45;;;1.20;;
48076;SDS011;33854;57.708;12.008;2022-07-29T15:29:00;4.43;;;1.50;;
48076;SDS011;33854;57.708;12.008;2022-07-29T15:31:26;1.05;;;0.70;;
48076;SDS011;33854;57.708;12.008;2022-07-29T15:33:51;2.10;;;0.90;;
48076;SDS011;33854;57.708;12.008;2022-07-29T15:36:16;1.75;;;0.65;;
48076;SDS011;33854;57.708;12.008;2022-07-29T15:38:42;1.60;;;0.68;;
48076;SDS011;33854;57.708;12.008;2022-07-29T15:41:09;2.70;;;0.57;;
48076;SDS011;33854;57.708;12.008;2022-07-29T15:48:44;1.83;;;0.80;;
48076;SDS011;33854;57.708;12.008;2022-07-29T15:51:09;1.52;;;0.52;;
48076;SDS011;33854;57.708;12.008;2022-07-29T15:53:35;2.28;;;0.75;;
48076;SDS011;33854;57.708;12.008;2022-07-29T15:56:00;1.83;;;0.85;;
48076;SDS011;33854;57.708;12.008;2022-07-29T15:58:26;1.83;;;0.80;;
48076;SDS011;33854;57.708;12.008;2022-07-29T16:00:51;3.15;;;0.60;;
48076;SDS011;33854;57.708;12.008;2022-07-29T16:03:16;1.77;;;0.60;;
48076;SDS011;33854;57.708;12.008;2022-07-29T16:05:42;2.93;;;0.63;;
48076;SDS011;33854;57.708;12.008;2022-07-29T16:08:07;2.97;;;0.77;;
48076;SDS011;33854;57.708;12.008;2022-07-29T16:10:33;1.30;;;0.73;;
48076;SDS011;33854;57.708;12.008;2022-07-29T16:12:58;2.33;;;0.50;;